Celtic Spirit — 2HHQ4 — position and weather

sailwx.info

Track history (hours):
 
Tides and Currents Weather Stations Pressure Air Temp Water Temp Dewpoint Dewpoint Depression Visibility Wind Speed Wind Dir Waves Ship Positions

Celtic Spirit

Last reported at 2018-Jun-24 00:30 UTC. Time now 2018-Jun-24 00:52 UTC.
Position N 50°16' W 000°19'.

Length 90 m; draft 5.9 m.

Type: Cargo ship. MMSI: 235103736.

Date/timePositionNaut miles runAvg speedWind from/ knotsBaromVisibWave heightAir tempDewpointWater temp
2018-Jun-24 00:30N 50°16' W 000°19'510.1
2018-Jun-24 00:00N 50°15' W 000°27'5 9.7
2018-Jun-23 23:30N 50°14' W 000°34'5 9.7
2018-Jun-23 22:57N 50°12' W 000°42'5 9.5
2018-Jun-23 22:25N 50°11' W 000°50'4 9.6
2018-Jun-23 22:00N 50°10' W 000°56'5 9.7
2018-Jun-23 21:30N 50°08' W 001°03'510.0
2018-Jun-23 21:00N 50°07' W 001°10'610.6
2018-Jun-23 20:26N 50°04' W 001°19'511.2
2018-Jun-23 20:00N 50°03' W 001°26'611.7
2018-Jun-23 19:29N 50°01' W 001°35'712.4
2018-Jun-23 18:55N 49°60' W 001°46'2413.7
2018-Jun-23 17:08N 49°54' W 002°23'213.8
2018-Jun-23 16:58N 49°54' W 002°26'713.6
2018-Jun-23 16:29N 49°52' W 002°36'713.3
2018-Jun-23 15:59N 49°50' W 002°46'612.8
2018-Jun-23 15:30N 49°48' W 002°55'612.7
2018-Jun-23 15:00N 49°44' W 003°04'612.6
2018-Jun-23 14:29N 49°41' W 003°12'1012.0
2018-Jun-23 13:39N 49°36' W 003°25'6611.6
2018-Jun-23 08:00N 49°02' W 004°52'510.7
2018-Jun-23 07:30N 48°60' W 004°59'510.6
2018-Jun-23 07:00N 48°57' W 005°06'510.5
2018-Jun-23 06:30N 48°54' W 005°13'510.4
2018-Jun-23 06:00N 48°52' W 005°20'510.2
2018-Jun-23 05:30N 48°49' W 005°26'510.3
2018-Jun-23 05:00N 48°46' W 005°33'510.1
2018-Jun-23 04:30N 48°43' W 005°38'510.3
2018-Jun-23 04:00N 48°38' W 005°42'510.3
2018-Jun-23 03:30N 48°34' W 005°45'510.6
2018-Jun-23 03:00N 48°29' W 005°49'610.6
2018-Jun-23 02:28N 48°24' W 005°53'510.6
2018-Jun-23 02:00N 48°19' W 005°56'510.7
2018-Jun-23 01:30N 48°14' W 005°59'510.9
2018-Jun-23 01:00N 48°09' W 006°03'611.1
2018-Jun-23 00:30N 48°05' W 006°07'511.0
2018-Jun-23 00:00N 47°60' W 006°10'611.2
2018-Jun-22 23:27N 47°54' W 006°15'811.2
2018-Jun-22 22:45N 47°47' W 006°21'411.1
2018-Jun-22 22:21N 47°44' W 006°24'411.3
2018-Jun-22 21:58N 47°40' W 006°27'511.5
2018-Jun-22 21:30N 47°35' W 006°30'611.0
2018-Jun-22 20:58N 47°30' W 006°34'  
2018-Jun-18 21:05N 41°06' W 008°46'0 6.3
2018-Jun-18 21:00N 41°06' W 008°46'3 6.2
2018-Jun-18 20:30N 41°09' W 008°43'3 5.3
2018-Jun-18 20:00N 41°11' W 008°42'0 0.9
2018-Jun-18 19:29N 41°11' W 008°41'0 0.0
2018-Jun-18 18:59N 41°11' W 008°41'0 0.0
2018-Jun-18 18:29N 41°11' W 008°41'0 0.0
2018-Jun-18 17:59N 41°11' W 008°41'0 0.0
2018-Jun-18 17:29N 41°11' W 008°41'0 0.0
2018-Jun-18 16:59N 41°11' W 008°41'0 0.0
2018-Jun-18 16:29N 41°11' W 008°41'0 0.0
2018-Jun-18 15:59N 41°11' W 008°41'0 0.0
2018-Jun-18 15:29N 41°11' W 008°41'0 0.0
2018-Jun-18 14:59N 41°11' W 008°41'0 0.0
2018-Jun-18 14:29N 41°11' W 008°41'0 0.0
2018-Jun-18 13:59N 41°11' W 008°41'0 0.0
2018-Jun-18 13:29N 41°11' W 008°41'0 0.0
2018-Jun-18 12:59N 41°11' W 008°41'0 0.0
2018-Jun-18 12:26N 41°11' W 008°41'0 0.0
2018-Jun-18 11:59N 41°11' W 008°41'0 0.0
2018-Jun-18 11:23N 41°11' W 008°41'0 0.0
2018-Jun-18 10:59N 41°11' W 008°41'0 0.0
2018-Jun-18 10:29N 41°11' W 008°41'0 0.0
2018-Jun-18 09:59N 41°11' W 008°41'0 0.0
2018-Jun-18 09:29N 41°11' W 008°41'0 0.0
2018-Jun-18 08:56N 41°11' W 008°41'0 0.0
2018-Jun-18 08:29N 41°11' W 008°41'0 0.0
2018-Jun-18 07:59N 41°11' W 008°41'0 0.0
2018-Jun-18 07:26N 41°11' W 008°41'0 0.0
2018-Jun-18 06:59N 41°11' W 008°41'0 0.0
2018-Jun-18 06:17N 41°11' W 008°41'0 0.0
2018-Jun-18 05:56N 41°11' W 008°41'0 0.0
2018-Jun-18 05:20N 41°11' W 008°41'0 0.0
2018-Jun-18 04:53N 41°11' W 008°41'0 0.0
2018-Jun-18 04:29N 41°11' W 008°41'0 0.0
2018-Jun-18 03:41N 41°11' W 008°41'0 0.0
2018-Jun-18 03:26N 41°11' W 008°41'0 0.0
2018-Jun-18 02:50N 41°11' W 008°41'0 0.0
2018-Jun-18 02:26N 41°11' W 008°41'0 0.0
2018-Jun-18 01:59N 41°11' W 008°41'0 0.0
2018-Jun-18 01:26N 41°11' W 008°41'0 0.0
2018-Jun-18 00:56N 41°11' W 008°41'0 0.0
2018-Jun-18 00:29N 41°11' W 008°41'0 0.0
2018-Jun-17 23:53N 41°11' W 008°41'0 0.0
2018-Jun-17 23:29N 41°11' W 008°41'0 0.0
2018-Jun-17 22:56N 41°11' W 008°41'0 0.0
2018-Jun-17 22:26N 41°11' W 008°41'0 0.0
2018-Jun-17 21:50N 41°11' W 008°41'0 0.0
2018-Jun-17 21:26N 41°11' W 008°41'0 0.0
2018-Jun-17 20:50N 41°11' W 008°41'0 0.0
2018-Jun-17 20:26N 41°11' W 008°41'0 0.0
2018-Jun-17 19:59N 41°11' W 008°41'0 0.0
2018-Jun-17 19:29N 41°11' W 008°41'0 0.0
2018-Jun-17 18:59N 41°11' W 008°41'0 0.0
2018-Jun-17 18:26N 41°11' W 008°41'0 0.0
2018-Jun-17 17:59N 41°11' W 008°41'0 0.0
2018-Jun-17 17:17N 41°11' W 008°41'0 0.0
2018-Jun-17 16:59N 41°11' W 008°41'0 0.0
2018-Jun-17 16:29N 41°11' W 008°41'0 0.0
2018-Jun-17 15:50N 41°11' W 008°41'0 0.0
2018-Jun-17 15:26N 41°11' W 008°41'0 0.0
2018-Jun-17 14:56N 41°11' W 008°41'0 0.0
2018-Jun-17 14:26N 41°11' W 008°41'0 0.0
2018-Jun-17 13:59N 41°11' W 008°41'0 0.0
2018-Jun-17 13:26N 41°11' W 008°41'0 0.0
2018-Jun-17 12:59N 41°11' W 008°41'0 0.0
2018-Jun-17 12:29N 41°11' W 008°41'0 0.0
2018-Jun-17 11:50N 41°11' W 008°41'0 0.0
2018-Jun-17 11:23N 41°11' W 008°41'0 0.0
2018-Jun-17 10:59N 41°11' W 008°41'0 0.0
2018-Jun-17 10:29N 41°11' W 008°41'0 0.0
2018-Jun-17 09:59N 41°11' W 008°41'0 0.0
2018-Jun-17 09:26N 41°11' W 008°41'0 0.0
2018-Jun-17 08:56N 41°11' W 008°41'0 0.0
2018-Jun-17 08:29N 41°11' W 008°41'0 0.0
2018-Jun-17 07:56N 41°11' W 008°41'0 0.0
2018-Jun-17 07:26N 41°11' W 008°41'0 0.0
2018-Jun-17 06:56N 41°11' W 008°41'0 0.0
2018-Jun-17 06:29N 41°11' W 008°41'0 0.0
2018-Jun-17 05:53N 41°11' W 008°41'0 0.0
2018-Jun-17 05:26N 41°11' W 008°41'0 0.0
2018-Jun-17 04:59N 41°11' W 008°41'0 0.0
2018-Jun-17 04:26N 41°11' W 008°41'0 0.0
2018-Jun-17 03:59N 41°11' W 008°41'0 0.0
2018-Jun-17 03:29N 41°11' W 008°41'0 0.0
2018-Jun-17 02:59N 41°11' W 008°41'0 0.0
2018-Jun-17 02:23N 41°11' W 008°41'0 0.0
2018-Jun-17 01:53N 41°11' W 008°41'0 0.0
2018-Jun-17 01:29N 41°11' W 008°41'0 0.0
2018-Jun-17 00:59N 41°11' W 008°41'0 0.0
2018-Jun-17 00:20N 41°11' W 008°41'0 0.0
2018-Jun-16 23:59N 41°11' W 008°41'0 0.0
2018-Jun-16 23:29N 41°11' W 008°41'0 0.0
2018-Jun-16 22:59N 41°11' W 008°41'0 0.0
2018-Jun-16 22:29N 41°11' W 008°41'0 0.0
2018-Jun-16 21:56N 41°11' W 008°41'0 0.0
2018-Jun-16 21:29N 41°11' W 008°41'0 0.0
2018-Jun-16 20:56N 41°11' W 008°41'0 0.0
2018-Jun-16 20:29N 41°11' W 008°41'0 0.0
2018-Jun-16 19:59N 41°11' W 008°41'0 0.0
2018-Jun-16 19:29N 41°11' W 008°41'0 0.0
2018-Jun-16 18:59N 41°11' W 008°41'0 0.0
2018-Jun-16 18:26N 41°11' W 008°41'0 0.0
2018-Jun-16 17:56N 41°11' W 008°41'0 0.0
2018-Jun-16 17:23N 41°11' W 008°41'0 0.0
2018-Jun-16 16:56N 41°11' W 008°41'0 0.0
2018-Jun-16 16:29N 41°11' W 008°41'0 0.0
2018-Jun-16 15:59N 41°11' W 008°41'0 0.0
2018-Jun-16 15:23N 41°11' W 008°41'0 0.0
2018-Jun-16 14:59N 41°11' W 008°41'0 0.0
2018-Jun-16 14:26N 41°11' W 008°41'0 0.0
2018-Jun-16 13:59N 41°11' W 008°41'0 0.0
2018-Jun-16 13:26N 41°11' W 008°41'0 0.0
2018-Jun-16 12:56N 41°11' W 008°41'0 0.0
2018-Jun-16 12:26N 41°11' W 008°41'0 0.0
2018-Jun-16 11:59N 41°11' W 008°41'0 0.0
2018-Jun-16 11:29N 41°11' W 008°41'0 0.0
2018-Jun-16 10:50N 41°11' W 008°41'0 0.0
2018-Jun-16 10:29N 41°11' W 008°41'0 0.0
2018-Jun-16 09:56N 41°11' W 008°41'0 0.0
2018-Jun-16 09:29N 41°11' W 008°41'1 1.4
2018-Jun-16 09:00N 41°11' W 008°42'4 6.8
2018-Jun-16 08:29N 41°08' W 008°43'1 0.9
2018-Jun-16 07:31N 41°08' W 008°44'0 3.9
2018-Jun-16 07:29N 41°08' W 008°44'46 7.3
2018-Jun-16 01:13N 41°47' W 009°17'3 9.7
2018-Jun-16 00:57N 41°49' W 009°19'  
Track history (hours):
 
Tides and Currents Weather Stations Pressure Air Temp Water Temp Dewpoint Dewpoint Depression Visibility Wind Speed Wind Dir Waves Ship Positions

Celtic Spirit

Last reported at 2018-Jun-24 00:30 UTC. Time now 2018-Jun-24 00:52 UTC.
Position N 50°16' W 000°19'.

Length 90 m; draft 5.9 m.

Type: Cargo ship. MMSI: 235103736.

Date/timePositionNaut miles runAvg speedWind from/ knotsBaromVisibWave heightAir tempDewpointWater temp
2018-Jun-24 00:30N 50°16' W 000°19'510.1
2018-Jun-24 00:00N 50°15' W 000°27'5 9.7
2018-Jun-23 23:30N 50°14' W 000°34'5 9.7
2018-Jun-23 22:57N 50°12' W 000°42'5 9.5
2018-Jun-23 22:25N 50°11' W 000°50'4 9.6
2018-Jun-23 22:00N 50°10' W 000°56'5 9.7
2018-Jun-23 21:30N 50°08' W 001°03'510.0
2018-Jun-23 21:00N 50°07' W 001°10'610.6
2018-Jun-23 20:26N 50°04' W 001°19'511.2
2018-Jun-23 20:00N 50°03' W 001°26'611.7
2018-Jun-23 19:29N 50°01' W 001°35'712.4
2018-Jun-23 18:55N 49°60' W 001°46'2413.7
2018-Jun-23 17:08N 49°54' W 002°23'213.8
2018-Jun-23 16:58N 49°54' W 002°26'713.6
2018-Jun-23 16:29N 49°52' W 002°36'713.3
2018-Jun-23 15:59N 49°50' W 002°46'612.8
2018-Jun-23 15:30N 49°48' W 002°55'612.7
2018-Jun-23 15:00N 49°44' W 003°04'612.6
2018-Jun-23 14:29N 49°41' W 003°12'1012.0
2018-Jun-23 13:39N 49°36' W 003°25'6611.6
2018-Jun-23 08:00N 49°02' W 004°52'510.7
2018-Jun-23 07:30N 48°60' W 004°59'510.6
2018-Jun-23 07:00N 48°57' W 005°06'510.5
2018-Jun-23 06:30N 48°54' W 005°13'510.4
2018-Jun-23 06:00N 48°52' W 005°20'510.2
2018-Jun-23 05:30N 48°49' W 005°26'510.3
2018-Jun-23 05:00N 48°46' W 005°33'510.1
2018-Jun-23 04:30N 48°43' W 005°38'510.3
2018-Jun-23 04:00N 48°38' W 005°42'510.3
2018-Jun-23 03:30N 48°34' W 005°45'510.6
2018-Jun-23 03:00N 48°29' W 005°49'610.6
2018-Jun-23 02:28N 48°24' W 005°53'510.6
2018-Jun-23 02:00N 48°19' W 005°56'510.7
2018-Jun-23 01:30N 48°14' W 005°59'510.9
2018-Jun-23 01:00N 48°09' W 006°03'611.1
2018-Jun-23 00:30N 48°05' W 006°07'511.0
2018-Jun-23 00:00N 47°60' W 006°10'611.2
2018-Jun-22 23:27N 47°54' W 006°15'811.2
2018-Jun-22 22:45N 47°47' W 006°21'411.1
2018-Jun-22 22:21N 47°44' W 006°24'411.3
2018-Jun-22 21:58N 47°40' W 006°27'511.5
2018-Jun-22 21:30N 47°35' W 006°30'611.0
2018-Jun-22 20:58N 47°30' W 006°34'  
2018-Jun-18 21:05N 41°06' W 008°46'0 6.3
2018-Jun-18 21:00N 41°06' W 008°46'3 6.2
2018-Jun-18 20:30N 41°09' W 008°43'3 5.3
2018-Jun-18 20:00N 41°11' W 008°42'0 0.9
2018-Jun-18 19:29N 41°11' W 008°41'0 0.0
2018-Jun-18 18:59N 41°11' W 008°41'0 0.0
2018-Jun-18 18:29N 41°11' W 008°41'0 0.0
2018-Jun-18 17:59N 41°11' W 008°41'0 0.0
2018-Jun-18 17:29N 41°11' W 008°41'0 0.0
2018-Jun-18 16:59N 41°11' W 008°41'0 0.0
2018-Jun-18 16:29N 41°11' W 008°41'0 0.0
2018-Jun-18 15:59N 41°11' W 008°41'0 0.0
2018-Jun-18 15:29N 41°11' W 008°41'0 0.0
2018-Jun-18 14:59N 41°11' W 008°41'0 0.0
2018-Jun-18 14:29N 41°11' W 008°41'0 0.0
2018-Jun-18 13:59N 41°11' W 008°41'0 0.0
2018-Jun-18 13:29N 41°11' W 008°41'0 0.0
2018-Jun-18 12:59N 41°11' W 008°41'0 0.0
2018-Jun-18 12:26N 41°11' W 008°41'0 0.0
2018-Jun-18 11:59N 41°11' W 008°41'0 0.0
2018-Jun-18 11:23N 41°11' W 008°41'0 0.0
2018-Jun-18 10:59N 41°11' W 008°41'0 0.0
2018-Jun-18 10:29N 41°11' W 008°41'0 0.0
2018-Jun-18 09:59N 41°11' W 008°41'0 0.0
2018-Jun-18 09:29N 41°11' W 008°41'0 0.0
2018-Jun-18 08:56N 41°11' W 008°41'0 0.0
2018-Jun-18 08:29N 41°11' W 008°41'0 0.0
2018-Jun-18 07:59N 41°11' W 008°41'0 0.0
2018-Jun-18 07:26N 41°11' W 008°41'0 0.0
2018-Jun-18 06:59N 41°11' W 008°41'0 0.0
2018-Jun-18 06:17N 41°11' W 008°41'0 0.0
2018-Jun-18 05:56N 41°11' W 008°41'0 0.0
2018-Jun-18 05:20N 41°11' W 008°41'0 0.0
2018-Jun-18 04:53N 41°11' W 008°41'0 0.0
2018-Jun-18 04:29N 41°11' W 008°41'0 0.0
2018-Jun-18 03:41N 41°11' W 008°41'0 0.0
2018-Jun-18 03:26N 41°11' W 008°41'0 0.0
2018-Jun-18 02:50N 41°11' W 008°41'0 0.0
2018-Jun-18 02:26N 41°11' W 008°41'0 0.0
2018-Jun-18 01:59N 41°11' W 008°41'0 0.0
2018-Jun-18 01:26N 41°11' W 008°41'0 0.0
2018-Jun-18 00:56N 41°11' W 008°41'0 0.0
2018-Jun-18 00:29N 41°11' W 008°41'0 0.0
2018-Jun-17 23:53N 41°11' W 008°41'0 0.0
2018-Jun-17 23:29N 41°11' W 008°41'0 0.0
2018-Jun-17 22:56N 41°11' W 008°41'0 0.0
2018-Jun-17 22:26N 41°11' W 008°41'0 0.0
2018-Jun-17 21:50N 41°11' W 008°41'0 0.0
2018-Jun-17 21:26N 41°11' W 008°41'0 0.0
2018-Jun-17 20:50N 41°11' W 008°41'0 0.0
2018-Jun-17 20:26N 41°11' W 008°41'0 0.0
2018-Jun-17 19:59N 41°11' W 008°41'0 0.0
2018-Jun-17 19:29N 41°11' W 008°41'0 0.0
2018-Jun-17 18:59N 41°11' W 008°41'0 0.0
2018-Jun-17 18:26N 41°11' W 008°41'0 0.0
2018-Jun-17 17:59N 41°11' W 008°41'0 0.0
2018-Jun-17 17:17N 41°11' W 008°41'0 0.0
2018-Jun-17 16:59N 41°11' W 008°41'0 0.0
2018-Jun-17 16:29N 41°11' W 008°41'0 0.0
2018-Jun-17 15:50N 41°11' W 008°41'0 0.0
2018-Jun-17 15:26N 41°11' W 008°41'0 0.0
2018-Jun-17 14:56N 41°11' W 008°41'0 0.0
2018-Jun-17 14:26N 41°11' W 008°41'0 0.0
2018-Jun-17 13:59N 41°11' W 008°41'0 0.0
2018-Jun-17 13:26N 41°11' W 008°41'0 0.0
2018-Jun-17 12:59N 41°11' W 008°41'0 0.0
2018-Jun-17 12:29N 41°11' W 008°41'0 0.0
2018-Jun-17 11:50N 41°11' W 008°41'0 0.0
2018-Jun-17 11:23N 41°11' W 008°41'0 0.0
2018-Jun-17 10:59N 41°11' W 008°41'0 0.0
2018-Jun-17 10:29N 41°11' W 008°41'0 0.0
2018-Jun-17 09:59N 41°11' W 008°41'0 0.0
2018-Jun-17 09:26N 41°11' W 008°41'0 0.0
2018-Jun-17 08:56N 41°11' W 008°41'0 0.0
2018-Jun-17 08:29N 41°11' W 008°41'0 0.0
2018-Jun-17 07:56N 41°11' W 008°41'0 0.0
2018-Jun-17 07:26N 41°11' W 008°41'0 0.0
2018-Jun-17 06:56N 41°11' W 008°41'0 0.0
2018-Jun-17 06:29N 41°11' W 008°41'0 0.0
2018-Jun-17 05:53N 41°11' W 008°41'0 0.0
2018-Jun-17 05:26N 41°11' W 008°41'0 0.0
2018-Jun-17 04:59N 41°11' W 008°41'0 0.0
2018-Jun-17 04:26N 41°11' W 008°41'0 0.0
2018-Jun-17 03:59N 41°11' W 008°41'0 0.0
2018-Jun-17 03:29N 41°11' W 008°41'0 0.0
2018-Jun-17 02:59N 41°11' W 008°41'0 0.0
2018-Jun-17 02:23N 41°11' W 008°41'0 0.0
2018-Jun-17 01:53N 41°11' W 008°41'0 0.0
2018-Jun-17 01:29N 41°11' W 008°41'0 0.0
2018-Jun-17 00:59N 41°11' W 008°41'0 0.0
2018-Jun-17 00:20N 41°11' W 008°41'0 0.0
2018-Jun-16 23:59N 41°11' W 008°41'0 0.0
2018-Jun-16 23:29N 41°11' W 008°41'0 0.0
2018-Jun-16 22:59N 41°11' W 008°41'0 0.0
2018-Jun-16 22:29N 41°11' W 008°41'0 0.0
2018-Jun-16 21:56N 41°11' W 008°41'0 0.0
2018-Jun-16 21:29N 41°11' W 008°41'0 0.0
2018-Jun-16 20:56N 41°11' W 008°41'0 0.0
2018-Jun-16 20:29N 41°11' W 008°41'0 0.0
2018-Jun-16 19:59N 41°11' W 008°41'0 0.0
2018-Jun-16 19:29N 41°11' W 008°41'0 0.0
2018-Jun-16 18:59N 41°11' W 008°41'0 0.0
2018-Jun-16 18:26N 41°11' W 008°41'0 0.0
2018-Jun-16 17:56N 41°11' W 008°41'0 0.0
2018-Jun-16 17:23N 41°11' W 008°41'0 0.0
2018-Jun-16 16:56N 41°11' W 008°41'0 0.0
2018-Jun-16 16:29N 41°11' W 008°41'0 0.0
2018-Jun-16 15:59N 41°11' W 008°41'0 0.0
2018-Jun-16 15:23N 41°11' W 008°41'0 0.0
2018-Jun-16 14:59N 41°11' W 008°41'0 0.0
2018-Jun-16 14:26N 41°11' W 008°41'0 0.0
2018-Jun-16 13:59N 41°11' W 008°41'0 0.0
2018-Jun-16 13:26N 41°11' W 008°41'0 0.0
2018-Jun-16 12:56N 41°11' W 008°41'0 0.0
2018-Jun-16 12:26N 41°11' W 008°41'0 0.0
2018-Jun-16 11:59N 41°11' W 008°41'0 0.0
2018-Jun-16 11:29N 41°11' W 008°41'0 0.0
2018-Jun-16 10:50N 41°11' W 008°41'0 0.0
2018-Jun-16 10:29N 41°11' W 008°41'0 0.0
2018-Jun-16 09:56N 41°11' W 008°41'0 0.0
2018-Jun-16 09:29N 41°11' W 008°41'1 1.4
2018-Jun-16 09:00N 41°11' W 008°42'4 6.8
2018-Jun-16 08:29N 41°08' W 008°43'1 0.9
2018-Jun-16 07:31N 41°08' W 008°44'0 3.9
2018-Jun-16 07:29N 41°08' W 008°44'46 7.3
2018-Jun-16 01:13N 41°47' W 009°17'3 9.7
2018-Jun-16 00:57N 41°49' W 009°19'  

Dump ship's entire track history